createdAt,value
2023-05-10T00:00:05.609Z,0.00
2023-05-10T00:01:05.574Z,0.00
2023-05-10T00:02:05.496Z,0.00
2023-05-10T00:03:05.691Z,0.00
2023-05-10T00:04:05.458Z,0.00
2023-05-10T00:05:05.408Z,0.00
2023-05-10T00:06:05.464Z,0.00
2023-05-10T00:07:06.439Z,0.00
2023-05-10T00:08:05.426Z,0.00
2023-05-10T00:09:05.181Z,0.00
2023-05-10T00:10:06.256Z,0.00
2023-05-10T00:11:05.087Z,0.00
2023-05-10T00:12:05.455Z,0.00
2023-05-10T00:13:05.098Z,0.00
2023-05-10T00:14:04.954Z,0.00
2023-05-10T00:15:04.912Z,0.00
2023-05-10T00:16:07.005Z,0.00
2023-05-10T00:17:04.832Z,0.00
2023-05-10T00:18:05.105Z,0.00
2023-05-10T00:19:04.759Z,0.00
2023-05-10T00:20:04.702Z,0.00
2023-05-10T00:21:04.660Z,0.00
2023-05-10T00:22:04.748Z,0.00
2023-05-10T00:23:04.588Z,0.00
2023-05-10T00:24:04.725Z,0.00
2023-05-10T00:25:04.479Z,0.00
2023-05-10T00:26:04.442Z,0.00
2023-05-10T00:27:05.565Z,0.00
2023-05-10T00:28:04.371Z,0.00
2023-05-10T00:29:06.403Z,0.00
2023-05-10T00:30:05.438Z,0.00
2023-05-10T00:31:04.226Z,0.00
2023-05-10T00:32:04.277Z,0.00
2023-05-10T00:33:04.224Z,0.00
2023-05-10T00:34:04.089Z,0.00
2023-05-10T00:35:05.217Z,0.00
2023-05-10T00:36:04.029Z,0.00
2023-05-10T00:37:03.986Z,0.00
2023-05-10T00:38:06.106Z,0.00
2023-05-10T00:39:04.019Z,0.00
2023-05-10T00:40:03.829Z,0.00
2023-05-10T00:41:04.849Z,0.00
2023-05-10T00:42:03.758Z,0.00
2023-05-10T00:43:03.889Z,0.00
2023-05-10T00:44:03.858Z,0.00
2023-05-10T00:45:03.617Z,0.00
2023-05-10T00:46:03.732Z,0.00
2023-05-10T00:47:03.548Z,0.00
2023-05-10T00:48:03.714Z,0.00
2023-05-10T00:49:03.493Z,0.00
2023-05-10T00:50:03.485Z,0.00
2023-05-10T00:51:03.351Z,0.00
2023-05-10T00:52:03.492Z,0.00
2023-05-10T00:53:03.269Z,0.00
2023-05-10T00:54:03.226Z,0.00
2023-05-10T00:55:04.402Z,0.00
2023-05-10T00:56:24.418Z,0.00
2023-05-10T00:57:03.100Z,0.00
2023-05-10T00:58:03.137Z,0.00
2023-05-10T00:59:03.013Z,0.00
2023-05-10T01:00:02.962Z,0.00
2023-05-10T01:01:03.989Z,0.00
2023-05-10T01:02:04.063Z,0.00
2023-05-10T01:03:04.156Z,0.00
2023-05-10T01:04:02.796Z,0.00
2023-05-10T01:05:03.058Z,0.00
2023-05-10T01:06:02.714Z,0.00
2023-05-10T01:07:02.788Z,0.00
2023-05-10T01:08:02.620Z,0.00
2023-05-10T01:09:02.801Z,0.00
2023-05-10T01:10:02.554Z,0.00
2023-05-10T01:11:02.495Z,0.00
2023-05-10T01:12:02.697Z,0.00
2023-05-10T01:13:02.637Z,0.00
2023-05-10T01:14:02.355Z,0.00
2023-05-10T01:15:02.446Z,0.00
2023-05-10T01:16:02.356Z,0.00
2023-05-10T01:17:02.242Z,0.00
2023-05-10T01:18:02.227Z,0.00
2023-05-10T01:19:02.284Z,0.00
2023-05-10T01:20:02.107Z,0.00
2023-05-10T01:21:02.282Z,0.00
2023-05-10T01:22:02.020Z,0.00
2023-05-10T01:23:02.149Z,0.00
2023-05-10T01:24:02.104Z,0.00
2023-05-10T01:25:01.884Z,0.00
2023-05-10T01:26:01.904Z,0.00
2023-05-10T01:27:01.820Z,0.00
2023-05-10T01:28:01.923Z,0.00
2023-05-10T01:29:01.712Z,0.00
2023-05-10T01:30:14.673Z,0.00
2023-05-10T01:31:01.696Z,0.00
2023-05-10T01:32:01.751Z,0.00
2023-05-10T01:33:01.583Z,0.00
2023-05-10T01:34:01.490Z,0.00
2023-05-10T01:35:01.450Z,0.00
2023-05-10T01:36:01.576Z,0.00
2023-05-10T01:37:01.361Z,0.00
2023-05-10T01:38:01.599Z,0.00
2023-05-10T01:39:01.269Z,0.00
2023-05-10T01:40:01.228Z,0.00
2023-05-10T01:41:01.181Z,0.00
2023-05-10T01:42:01.409Z,0.00
2023-05-10T01:43:01.104Z,0.00
2023-05-10T01:44:01.219Z,0.00
2023-05-10T01:45:01.012Z,0.00
2023-05-10T01:46:00.965Z,0.00
2023-05-10T01:47:02.167Z,0.00
2023-05-10T01:48:03.174Z,0.00
2023-05-10T01:49:01.047Z,0.00
2023-05-10T01:50:00.797Z,0.00
2023-05-10T01:51:00.751Z,0.00
2023-05-10T01:52:00.701Z,0.00
2023-05-10T01:53:00.880Z,0.00
2023-05-10T01:54:00.633Z,0.00
2023-05-10T01:55:00.681Z,0.00
2023-05-10T01:56:00.535Z,0.00
2023-05-10T01:57:00.502Z,0.00
2023-05-10T01:58:00.446Z,0.00
2023-05-10T01:59:00.506Z,0.00
2023-05-10T02:00:00.559Z,0.00
2023-05-10T02:01:01.579Z,0.00
2023-05-10T02:02:00.262Z,0.00
2023-05-10T02:03:00.310Z,0.00
2023-05-10T02:04:02.451Z,0.00
2023-05-10T02:05:00.146Z,0.00
2023-05-10T02:06:01.187Z,0.00
2023-05-10T02:07:00.077Z,0.00
2023-05-10T02:08:00.581Z,0.00
2023-05-10T02:08:59.958Z,0.00
2023-05-10T02:10:00.215Z,0.00
2023-05-10T02:10:59.878Z,0.00
2023-05-10T02:12:01.016Z,0.00
2023-05-10T02:12:59.840Z,0.00
2023-05-10T02:13:59.761Z,0.00
2023-05-10T02:14:59.700Z,0.00
2023-05-10T02:15:59.812Z,0.00
2023-05-10T02:16:59.675Z,0.00
2023-05-10T02:17:59.857Z,0.00
2023-05-10T02:18:59.745Z,0.00
2023-05-10T02:19:59.487Z,0.00
2023-05-10T02:20:59.437Z,0.00
2023-05-10T02:22:00.487Z,0.00
2023-05-10T02:22:59.353Z,0.00
2023-05-10T02:24:01.525Z,0.00
2023-05-10T02:24:59.283Z,0.00
2023-05-10T02:25:59.225Z,0.00
2023-05-10T02:26:59.286Z,0.00
2023-05-10T02:27:59.135Z,0.00
2023-05-10T02:29:00.325Z,0.00
2023-05-10T02:29:59.172Z,0.00
2023-05-10T02:30:59.027Z,0.00
2023-05-10T02:31:59.034Z,0.00
2023-05-10T02:32:59.180Z,0.00
2023-05-10T02:33:58.883Z,0.00
2023-05-10T02:35:00.173Z,0.00
2023-05-10T02:35:58.788Z,0.00
2023-05-10T02:36:58.745Z,0.00
2023-05-10T02:37:58.700Z,0.00
2023-05-10T02:38:58.757Z,0.00
2023-05-10T02:39:58.614Z,0.00
2023-05-10T02:40:58.984Z,0.00
2023-05-10T02:41:58.555Z,0.00
2023-05-10T02:42:58.489Z,0.00
2023-05-10T02:44:00.637Z,0.00
2023-05-10T02:44:58.397Z,0.00
2023-05-10T02:46:00.470Z,0.00
2023-05-10T02:46:58.338Z,0.00
2023-05-10T02:48:00.552Z,0.00
2023-05-10T02:48:58.255Z,0.00
2023-05-10T02:49:59.268Z,0.00
2023-05-10T02:50:58.142Z,0.00
2023-05-10T02:51:59.674Z,0.00
2023-05-10T02:52:58.045Z,0.00
2023-05-10T02:53:58.005Z,0.00
2023-05-10T02:54:57.967Z,0.00
2023-05-10T02:56:00.124Z,0.00
2023-05-10T02:56:57.873Z,0.00
2023-05-10T02:57:58.073Z,0.00
2023-05-10T02:58:57.787Z,0.00
2023-05-10T02:59:57.750Z,0.00
2023-05-10T03:00:57.701Z,0.00
2023-05-10T03:01:57.970Z,0.00
2023-05-10T03:02:57.664Z,0.00
2023-05-10T03:04:00.992Z,0.00
2023-05-10T03:04:57.612Z,0.00
2023-05-10T03:05:57.487Z,0.00
2023-05-10T03:06:57.738Z,0.00
2023-05-10T03:07:57.402Z,0.00
2023-05-10T03:08:57.775Z,0.00
2023-05-10T03:09:57.312Z,0.00
2023-05-10T03:10:57.263Z,0.00
2023-05-10T03:11:57.246Z,0.00
2023-05-10T03:12:57.386Z,0.00
2023-05-10T03:13:57.138Z,0.00
2023-05-10T03:14:57.385Z,0.00
2023-05-10T03:15:57.079Z,0.00
2023-05-10T03:16:57.001Z,0.00
2023-05-10T03:17:57.044Z,0.00
2023-05-10T03:18:57.006Z,0.00
2023-05-10T03:19:56.878Z,0.00
2023-05-10T03:20:59.074Z,0.00
2023-05-10T03:21:56.793Z,0.00
2023-05-10T03:22:56.748Z,0.00
2023-05-10T03:23:56.838Z,0.00
2023-05-10T03:24:56.656Z,0.00
2023-05-10T03:26:18.971Z,0.00
2023-05-10T03:26:56.587Z,0.00
2023-05-10T03:27:56.665Z,0.00
2023-05-10T03:28:56.496Z,0.00
2023-05-10T03:29:56.682Z,0.00
2023-05-10T03:30:56.395Z,0.00
2023-05-10T03:31:57.555Z,0.00
2023-05-10T03:32:56.554Z,4.00
2023-05-10T03:33:56.269Z,4.00
2023-05-10T03:34:56.222Z,4.00
2023-05-10T03:35:56.309Z,4.00
2023-05-10T03:36:56.153Z,4.00
2023-05-10T03:37:56.322Z,4.00
2023-05-10T03:38:56.053Z,4.00
2023-05-10T03:39:56.006Z,8.00
2023-05-10T03:40:55.953Z,8.00
2023-05-10T03:41:56.147Z,8.00
2023-05-10T03:42:56.202Z,16.00
2023-05-10T03:43:55.963Z,20.00
2023-05-10T03:44:55.779Z,20.00
2023-05-10T03:45:55.758Z,24.00
2023-05-10T03:46:55.808Z,28.00
2023-05-10T03:47:55.662Z,36.00
2023-05-10T03:48:56.001Z,44.00
2023-05-10T03:49:55.563Z,56.00
2023-05-10T03:50:55.524Z,64.00
2023-05-10T03:51:55.484Z,68.00
2023-05-10T03:52:55.624Z,80.00
2023-05-10T03:53:55.392Z,84.00
2023-05-10T03:54:55.638Z,88.00
2023-05-10T03:55:55.298Z,84.00
2023-05-10T03:56:55.255Z,92.00
2023-05-10T03:57:55.230Z,108.00
2023-05-10T03:58:55.467Z,128.00
2023-05-10T03:59:55.121Z,148.00
2023-05-10T04:00:55.285Z,164.00
2023-05-10T04:01:55.069Z,172.00
2023-05-10T04:02:55.058Z,188.00
2023-05-10T04:03:55.155Z,204.00
2023-05-10T04:04:55.142Z,216.00
2023-05-10T04:05:55.131Z,220.00
2023-05-10T04:06:54.818Z,228.00
2023-05-10T04:07:54.910Z,240.00
2023-05-10T04:08:54.728Z,264.00
2023-05-10T04:09:54.928Z,288.00
2023-05-10T04:10:54.639Z,304.00
2023-05-10T04:11:54.947Z,336.00
2023-05-10T04:12:54.575Z,376.00
2023-05-10T04:13:54.513Z,416.00
2023-05-10T04:14:54.465Z,448.00
2023-05-10T04:15:54.566Z,480.00
2023-05-10T04:16:54.414Z,524.00
2023-05-10T04:17:54.624Z,576.00
2023-05-10T04:18:54.286Z,632.00
2023-05-10T04:19:54.245Z,676.00
2023-05-10T04:20:55.461Z,728.00
2023-05-10T04:21:54.399Z,764.00
2023-05-10T04:22:54.115Z,792.00
2023-05-10T04:23:54.204Z,816.00
2023-05-10T04:24:54.026Z,892.00
2023-05-10T04:25:53.987Z,996.00
2023-05-10T04:26:55.494Z,1080.00
2023-05-10T04:27:53.895Z,1168.00
2023-05-10T04:28:55.060Z,1208.00
2023-05-10T04:29:53.812Z,1252.00
2023-05-10T04:30:53.796Z,1272.00
2023-05-10T04:31:53.725Z,1400.00
2023-05-10T04:32:54.103Z,1432.00
2023-05-10T04:33:53.628Z,1488.00
2023-05-10T04:34:54.752Z,1532.00
2023-05-10T04:35:53.560Z,1428.00
2023-05-10T04:36:53.493Z,1504.00
2023-05-10T04:37:53.458Z,1476.00
2023-05-10T04:38:54.527Z,1492.00
2023-05-10T04:39:53.367Z,1508.00
2023-05-10T04:40:55.569Z,1516.00
2023-05-10T04:41:53.570Z,1544.00
2023-05-10T04:42:53.241Z,1464.00
2023-05-10T04:43:53.328Z,1480.00
2023-05-10T04:44:53.147Z,1492.00
2023-05-10T04:45:53.414Z,1508.00
2023-05-10T04:46:53.062Z,1528.00
2023-05-10T04:47:53.191Z,1556.00
2023-05-10T04:48:52.986Z,1560.00
2023-05-10T04:49:53.167Z,1636.00
2023-05-10T04:50:52.917Z,1656.00
2023-05-10T04:51:52.980Z,1664.00
2023-05-10T04:52:53.382Z,1712.00
2023-05-10T04:54:05.430Z,1676.00
2023-05-10T04:54:53.021Z,1708.00
2023-05-10T04:55:52.688Z,1632.00
2023-05-10T04:56:52.811Z,1600.00
2023-05-10T04:57:52.607Z,1540.00
2023-05-10T04:58:52.832Z,1612.00
2023-05-10T04:59:52.567Z,1528.00
2023-05-10T05:00:53.700Z,1644.00
2023-05-10T05:01:52.447Z,1628.00
2023-05-10T05:03:13.585Z,1588.00
2023-05-10T05:03:52.367Z,1560.00
2023-05-10T05:04:52.468Z,1528.00
2023-05-10T05:05:52.534Z,1508.00
2023-05-10T05:06:53.740Z,1524.00
2023-05-10T05:07:52.151Z,1512.00
2023-05-10T05:10:24.038Z,1488.00
2023-05-10T05:11:23.648Z,1480.00
2023-05-10T05:12:23.850Z,1496.00
2023-05-10T05:13:23.674Z,1556.00
2023-05-10T05:14:24.689Z,1636.00
2023-05-10T05:15:23.473Z,1748.00
2023-05-10T05:16:23.458Z,1872.00
2023-05-10T05:17:23.435Z,2020.00
2023-05-10T05:18:23.486Z,2164.00
2023-05-10T05:19:23.299Z,2292.00
2023-05-10T05:20:24.741Z,2448.00
2023-05-10T05:21:23.224Z,2700.00
2023-05-10T05:22:23.169Z,3104.00
2023-05-10T05:23:23.310Z,3508.00
2023-05-10T05:24:23.079Z,3832.00
2023-05-10T05:25:23.328Z,4096.00
2023-05-10T05:26:23.189Z,4208.00
2023-05-10T05:27:23.133Z,4140.00
2023-05-10T05:28:22.906Z,4032.00
2023-05-10T05:29:23.355Z,3904.00
2023-05-10T05:30:22.810Z,3752.00
2023-05-10T05:31:22.981Z,3692.00
2023-05-10T05:32:22.732Z,3736.00
2023-05-10T05:33:22.685Z,3752.00
2023-05-10T05:34:22.639Z,3772.00
2023-05-10T05:35:22.994Z,3836.00
2023-05-10T05:36:22.554Z,3940.00
2023-05-10T05:37:24.641Z,4092.00
2023-05-10T05:38:22.468Z,4280.00
2023-05-10T05:39:22.431Z,4428.00
2023-05-10T05:40:22.378Z,4236.00
2023-05-10T05:41:22.384Z,3752.00
2023-05-10T05:42:22.433Z,3412.00
2023-05-10T05:43:22.264Z,3360.00
2023-05-10T05:44:22.441Z,3052.00
2023-05-10T05:45:22.175Z,2904.00
2023-05-10T05:46:22.275Z,2736.00
2023-05-10T05:47:22.314Z,2736.00
2023-05-10T05:48:23.315Z,3268.00
2023-05-10T05:49:21.981Z,3896.00
2023-05-10T05:50:22.082Z,4432.00
2023-05-10T05:51:21.896Z,5368.00
2023-05-10T05:52:23.114Z,5928.00
2023-05-10T05:53:21.815Z,6136.00
2023-05-10T05:54:21.903Z,6040.00
2023-05-10T05:55:21.738Z,5768.00
2023-05-10T05:56:21.687Z,5508.00
2023-05-10T05:57:21.791Z,5496.00
2023-05-10T05:58:23.990Z,5648.00
2023-05-10T05:59:21.554Z,5712.00
2023-05-10T06:03:48.198Z,2292.00
2023-05-10T06:04:50.036Z,2212.00
2023-05-10T06:05:47.750Z,2092.00
2023-05-10T06:06:48.821Z,2328.00
2023-05-10T06:07:47.804Z,3368.00
2023-05-10T06:08:47.613Z,3936.00
2023-05-10T06:09:47.818Z,3652.00
2023-05-10T06:10:47.524Z,3496.00
2023-05-10T06:11:47.638Z,3712.00
2023-05-10T06:12:47.492Z,3680.00
2023-05-10T06:13:47.398Z,3564.00
2023-05-10T06:14:48.881Z,3396.00
2023-05-10T06:15:47.459Z,3664.00
2023-05-10T06:16:47.305Z,4120.00
2023-05-10T06:17:48.519Z,4360.00
2023-05-10T06:18:47.172Z,4264.00
2023-05-10T06:19:48.306Z,4100.00
2023-05-10T06:20:47.107Z,3716.00
2023-05-10T06:21:53.102Z,3356.00
2023-05-10T06:22:46.999Z,3048.00
2023-05-10T06:23:47.100Z,2876.00
2023-05-10T06:24:47.122Z,2856.00
2023-05-10T06:25:46.866Z,2840.00
2023-05-10T06:26:47.124Z,2636.00
2023-05-10T06:27:49.705Z,2340.00
2023-05-10T06:28:49.005Z,2160.00
2023-05-10T06:29:46.708Z,2056.00
2023-05-10T06:30:46.648Z,1852.00
2023-05-10T06:31:46.652Z,1724.00
2023-05-10T06:32:46.794Z,1768.00
2023-05-10T06:33:47.842Z,1980.00
2023-05-10T06:34:46.778Z,1992.00
2023-05-10T06:35:46.434Z,1668.00
2023-05-10T06:36:46.610Z,1412.00
2023-05-10T06:37:46.363Z,1240.00
2023-05-10T06:38:46.598Z,1464.00
2023-05-10T06:39:46.274Z,1744.00
2023-05-10T06:40:46.407Z,1648.00
2023-05-10T06:41:46.627Z,2040.00
2023-05-10T06:42:46.125Z,2820.00
2023-05-10T06:43:47.260Z,2852.00
2023-05-10T06:44:46.089Z,2556.00
2023-05-10T06:45:47.261Z,2140.00
2023-05-10T06:46:46.043Z,2000.00
2023-05-10T06:47:45.961Z,2128.00
2023-05-10T06:48:46.059Z,2224.00
2023-05-10T06:49:45.807Z,2236.00
2023-05-10T06:50:46.073Z,2084.00
2023-05-10T06:51:46.955Z,1716.00
2023-05-10T06:52:45.688Z,1760.00
2023-05-10T06:53:45.628Z,2488.00
2023-05-10T06:54:45.901Z,2752.00
2023-05-10T06:55:45.544Z,3360.00
2023-05-10T06:56:45.715Z,5592.00
2023-05-10T06:57:45.486Z,6432.00
2023-05-10T06:58:45.415Z,6172.00
2023-05-10T06:59:45.360Z,5660.00
2023-05-10T07:00:45.575Z,4992.00
2023-05-10T07:01:45.310Z,4556.00
2023-05-10T07:02:45.711Z,4320.00
2023-05-10T07:03:45.371Z,4336.00
2023-05-10T07:04:45.388Z,4352.00
2023-05-10T07:05:45.156Z,4464.00
2023-05-10T07:06:45.375Z,4788.00
2023-05-10T07:07:45.014Z,5352.00
2023-05-10T07:08:45.193Z,6096.00
2023-05-10T07:09:45.185Z,6980.00
2023-05-10T07:10:44.883Z,8076.00
2023-05-10T07:11:45.914Z,9352.00
2023-05-10T07:12:44.825Z,10276.00
2023-05-10T07:13:44.995Z,10864.00
2023-05-10T07:14:44.709Z,11172.00
2023-05-10T07:15:44.871Z,11476.00
2023-05-10T07:16:44.743Z,11456.00
2023-05-10T07:17:45.771Z,11264.00
2023-05-10T07:18:45.576Z,11568.00
2023-05-10T07:19:44.530Z,11496.00
2023-05-10T07:20:44.429Z,10896.00
2023-05-10T07:21:44.394Z,10368.00
2023-05-10T07:22:44.576Z,9592.00
2023-05-10T07:23:45.128Z,8416.00
2023-05-10T07:24:46.633Z,7404.00
2023-05-10T07:25:44.210Z,7988.00
2023-05-10T07:26:44.187Z,9232.00
2023-05-10T07:27:44.207Z,8556.00
2023-05-10T07:28:44.092Z,7300.00
2023-05-10T07:29:45.241Z,7512.00
2023-05-10T07:30:44.069Z,8276.00
2023-05-10T07:31:45.171Z,8528.00
2023-05-10T07:32:43.932Z,8676.00
2023-05-10T07:33:45.057Z,9548.00
2023-05-10T07:34:43.860Z,11992.00
2023-05-10T07:35:44.862Z,15036.00
2023-05-10T07:36:43.741Z,16000.00
2023-05-10T07:37:43.719Z,17496.00
2023-05-10T07:38:44.682Z,18912.00
2023-05-10T07:39:43.599Z,19072.00
2023-05-10T07:40:43.676Z,19232.00
2023-05-10T07:41:43.510Z,20416.00
2023-05-10T07:42:43.483Z,21088.00
2023-05-10T07:43:44.570Z,20480.00
2023-05-10T07:44:44.531Z,20032.00
2023-05-10T07:45:43.353Z,19168.00
2023-05-10T07:46:43.516Z,18304.00
2023-05-10T07:47:43.297Z,16184.00
2023-05-10T07:48:43.220Z,15428.00
2023-05-10T07:49:43.171Z,14972.00
2023-05-10T07:51:04.220Z,15856.00
2023-05-10T07:51:43.075Z,15448.00
2023-05-10T07:52:44.169Z,18336.00
2023-05-10T07:53:43.042Z,18912.00
2023-05-10T07:54:43.162Z,20096.00
2023-05-10T07:55:42.909Z,21600.00
2023-05-10T07:56:43.172Z,22272.00
2023-05-10T07:57:42.824Z,23072.00
2023-05-10T07:58:43.003Z,23008.00
2023-05-10T07:59:43.829Z,21984.00
2023-05-10T08:00:42.709Z,20576.00
2023-05-10T08:01:44.049Z,18080.00
2023-05-10T08:02:42.656Z,13824.00
2023-05-10T08:03:42.648Z,12584.00
2023-05-10T08:04:42.681Z,12736.00
2023-05-10T08:05:42.494Z,12384.00
2023-05-10T08:06:42.717Z,11216.00
2023-05-10T08:07:42.425Z,10452.00
2023-05-10T08:08:42.454Z,11856.00
2023-05-10T08:09:42.503Z,13048.00
2023-05-10T08:10:42.277Z,12316.00
2023-05-10T08:11:42.244Z,10716.00
2023-05-10T08:12:42.269Z,10008.00
2023-05-10T08:13:42.152Z,10676.00
2023-05-10T08:14:42.279Z,10688.00
2023-05-10T08:15:42.092Z,9960.00
2023-05-10T08:16:42.030Z,9060.00
2023-05-10T08:17:42.135Z,8608.00
2023-05-10T08:18:41.942Z,8448.00
2023-05-10T08:20:03.207Z,8448.00
2023-05-10T08:20:41.880Z,8964.00
2023-05-10T08:21:41.927Z,10320.00
2023-05-10T08:22:43.010Z,11984.00
2023-05-10T08:23:41.936Z,13028.00
2023-05-10T08:24:41.682Z,11844.00
2023-05-10T08:25:42.774Z,9512.00
2023-05-10T08:26:41.606Z,8604.00
2023-05-10T08:27:41.555Z,9348.00
2023-05-10T08:28:41.514Z,9536.00
2023-05-10T08:29:50.071Z,8068.00
2023-05-10T08:30:41.425Z,6388.00
2023-05-10T08:31:41.648Z,5328.00
2023-05-10T08:32:41.368Z,5024.00
2023-05-10T08:33:42.439Z,5092.00
2023-05-10T08:34:41.405Z,4096.00
2023-05-10T08:35:41.228Z,3196.00
2023-05-10T08:36:45.513Z,2972.00
2023-05-10T08:37:41.134Z,3196.00
2023-05-10T08:38:41.082Z,3392.00
2023-05-10T08:39:41.089Z,3364.00
2023-05-10T08:40:41.036Z,3240.00
2023-05-10T08:41:40.958Z,3292.00
2023-05-10T08:42:42.078Z,3348.00
2023-05-10T08:43:40.875Z,3368.00
2023-05-10T08:44:40.825Z,3472.00
2023-05-10T08:45:40.975Z,3800.00
2023-05-10T08:46:41.018Z,4596.00
2023-05-10T08:47:40.721Z,5880.00
2023-05-10T08:48:40.892Z,7396.00
2023-05-10T08:49:40.618Z,9288.00
2023-05-10T08:50:40.582Z,10628.00
2023-05-10T08:51:41.851Z,11408.00
2023-05-10T08:52:40.493Z,12600.00
2023-05-10T08:53:40.520Z,14776.00
2023-05-10T08:54:40.410Z,17344.00
2023-05-10T08:55:40.366Z,20096.00
2023-05-10T08:56:40.318Z,21312.00
2023-05-10T08:57:40.556Z,20224.00
2023-05-10T08:58:40.236Z,19744.00
2023-05-10T08:59:41.408Z,19072.00
2023-05-10T09:00:40.151Z,18432.00
2023-05-10T09:01:40.110Z,17792.00
2023-05-10T09:02:40.102Z,18048.00
2023-05-10T09:03:41.250Z,18336.00
2023-05-10T09:04:40.318Z,19008.00
2023-05-10T09:05:39.998Z,20128.00
2023-05-10T09:06:40.025Z,21376.00
2023-05-10T09:07:41.041Z,22464.00
2023-05-10T09:08:39.830Z,23968.00
2023-05-10T09:09:40.848Z,25472.00
2023-05-10T09:10:39.743Z,28224.00
2023-05-10T09:11:39.839Z,31104.00
2023-05-10T09:12:39.698Z,33312.00
2023-05-10T09:13:39.850Z,34752.00
2023-05-10T09:14:39.587Z,36480.00
2023-05-10T09:16:07.122Z,37696.00
2023-05-10T09:16:39.809Z,41376.00
2023-05-10T09:17:39.531Z,45376.00
2023-05-10T09:18:39.421Z,56448.00
2023-05-10T09:19:39.506Z,43520.00
2023-05-10T09:20:39.386Z,29344.00
2023-05-10T09:21:39.715Z,24128.00
2023-05-10T09:22:39.247Z,20640.00
2023-05-10T09:23:39.197Z,17760.00
2023-05-10T09:24:39.162Z,15652.00
2023-05-10T09:25:39.333Z,14868.00
2023-05-10T09:26:39.106Z,15516.00
2023-05-10T09:27:39.749Z,16060.00
2023-05-10T09:28:38.998Z,16408.00
2023-05-10T09:29:38.960Z,16044.00
2023-05-10T09:30:39.380Z,16088.00
2023-05-10T09:31:38.909Z,17248.00
2023-05-10T09:32:38.993Z,19680.00
2023-05-10T09:33:38.807Z,21184.00
2023-05-10T09:34:38.782Z,19968.00
2023-05-10T09:35:38.714Z,17024.00
2023-05-10T09:36:38.787Z,14680.00
2023-05-10T09:37:38.635Z,13296.00
2023-05-10T09:38:38.804Z,12904.00
2023-05-10T09:39:38.555Z,13600.00
2023-05-10T09:40:38.534Z,15716.00
2023-05-10T09:41:38.484Z,19392.00
2023-05-10T09:42:38.845Z,24288.00
2023-05-10T09:43:38.398Z,32928.00
2023-05-10T09:44:39.465Z,33312.00
2023-05-10T09:45:38.871Z,63680.00
2023-05-10T09:46:38.567Z,50976.00
2023-05-10T09:47:38.332Z,52992.00
2023-05-10T09:48:38.284Z,61472.00
2023-05-10T09:49:38.144Z,58592.00
2023-05-10T09:50:38.282Z,76576.00
2023-05-10T09:51:38.079Z,108288.00
2023-05-10T09:52:39.527Z,71520.00
2023-05-10T09:53:38.028Z,52800.00
2023-05-10T09:54:39.133Z,46336.00
2023-05-10T09:55:37.907Z,88992.00
2023-05-10T09:56:38.223Z,51296.00
2023-05-10T09:57:37.849Z,35136.00
2023-05-10T09:58:37.869Z,30272.00
2023-05-10T09:59:37.961Z,29760.00
2023-05-10T10:00:37.728Z,26400.00
2023-05-10T10:01:37.846Z,25216.00
2023-05-10T10:02:38.824Z,26272.00
2023-05-10T10:03:37.627Z,45280.00
2023-05-10T10:04:37.811Z,25824.00
2023-05-10T10:05:37.546Z,22880.00
2023-05-10T10:06:37.603Z,20864.00
2023-05-10T10:07:37.462Z,23968.00
2023-05-10T10:08:37.520Z,30944.00
2023-05-10T10:09:58.685Z,52960.00
2023-05-10T10:10:37.344Z,32384.00
2023-05-10T10:11:37.461Z,29408.00
2023-05-10T10:12:37.257Z,32160.00
2023-05-10T10:13:37.232Z,34880.00
2023-05-10T10:14:37.183Z,33824.00
2023-05-10T10:15:38.520Z,35936.00
2023-05-10T10:16:39.874Z,59936.00
2023-05-10T10:17:38.366Z,54272.00
2023-05-10T10:18:38.158Z,33600.00
2023-05-10T10:19:37.365Z,28544.00
2023-05-10T10:20:38.101Z,26752.00
2023-05-10T10:21:36.923Z,25120.00
2023-05-10T10:22:37.091Z,22656.00
2023-05-10T10:23:36.840Z,20160.00
2023-05-10T10:24:36.834Z,17632.00
2023-05-10T10:25:37.931Z,17504.00
2023-05-10T10:26:36.765Z,18240.00
2023-05-10T10:27:37.008Z,19840.00
2023-05-10T10:28:36.656Z,20832.00
2023-05-10T10:29:36.722Z,20384.00
2023-05-10T10:30:36.857Z,21440.00
2023-05-10T10:31:37.910Z,22976.00
2023-05-10T10:32:36.615Z,23680.00
2023-05-10T10:33:37.585Z,25728.00
2023-05-10T10:34:36.408Z,29152.00
2023-05-10T10:35:36.386Z,33728.00
2023-05-10T10:36:36.356Z,35808.00
2023-05-10T10:37:36.375Z,37024.00
2023-05-10T10:38:36.437Z,39680.00
2023-05-10T10:39:37.550Z,52128.00
2023-05-10T10:40:36.177Z,115392.00
2023-05-10T10:41:36.146Z,78400.00
2023-05-10T10:42:37.231Z,54240.00
2023-05-10T10:43:36.099Z,33984.00
2023-05-10T10:44:36.240Z,25408.00
2023-05-10T10:45:35.988Z,17856.00
2023-05-10T10:46:35.967Z,13604.00
2023-05-10T10:47:35.934Z,11220.00
2023-05-10T10:48:37.286Z,10024.00
2023-05-10T10:49:35.863Z,9900.00
2023-05-10T10:50:36.060Z,10644.00
2023-05-10T10:51:35.765Z,11384.00
2023-05-10T10:52:35.880Z,11708.00
2023-05-10T10:53:35.693Z,11292.00
2023-05-10T10:54:36.701Z,10812.00
2023-05-10T10:55:36.764Z,11260.00
2023-05-10T10:56:37.034Z,12592.00
2023-05-10T10:57:35.535Z,14996.00
2023-05-10T10:58:57.625Z,19232.00
2023-05-10T10:59:35.469Z,24096.00
2023-05-10T11:00:35.494Z,28384.00
2023-05-10T11:01:35.628Z,32640.00
2023-05-10T11:02:35.423Z,37248.00
2023-05-10T11:03:37.468Z,42496.00
2023-05-10T11:04:35.280Z,47584.00
2023-05-10T11:05:35.349Z,113280.00
2023-05-10T11:06:35.309Z,68992.00
2023-05-10T11:07:37.218Z,51328.00
2023-05-10T11:08:36.943Z,50656.00
2023-05-10T11:09:35.176Z,55744.00
2023-05-10T11:10:35.025Z,99840.00
2023-05-10T11:11:35.188Z,58144.00
2023-05-10T11:12:34.942Z,49184.00
2023-05-10T11:13:36.035Z,39968.00
2023-05-10T11:14:34.926Z,35232.00
2023-05-10T11:15:35.146Z,35104.00
2023-05-10T11:16:34.874Z,35392.00
2023-05-10T11:17:34.855Z,40032.00
2023-05-10T11:18:35.880Z,52800.00
2023-05-10T11:19:34.689Z,43232.00
2023-05-10T11:20:34.897Z,42400.00
2023-05-10T11:21:55.768Z,41696.00
2023-05-10T11:22:34.627Z,43040.00
2023-05-10T11:23:34.871Z,45440.00
2023-05-10T11:24:34.541Z,47328.00
2023-05-10T11:25:34.687Z,48608.00
2023-05-10T11:26:34.490Z,66464.00
2023-05-10T11:27:34.487Z,107520.00
2023-05-10T11:28:34.343Z,88576.00
2023-05-10T11:29:36.765Z,58720.00
2023-05-10T11:30:34.288Z,61280.00
2023-05-10T11:31:34.259Z,58432.00
2023-05-10T11:32:34.212Z,69088.00
2023-05-10T11:33:34.328Z,61728.00
2023-05-10T11:34:34.136Z,58464.00
2023-05-10T11:35:34.407Z,54176.00
2023-05-10T11:36:34.224Z,76096.00
2023-05-10T11:37:34.044Z,58240.00
2023-05-10T11:38:34.161Z,92320.00
2023-05-10T11:39:38.725Z,74944.00
2023-05-10T11:40:34.994Z,58848.00
2023-05-10T11:41:33.910Z,54272.00
2023-05-10T11:42:35.102Z,50848.00
2023-05-10T11:43:33.811Z,49568.00
2023-05-10T11:44:34.012Z,47264.00
2023-05-10T11:45:33.777Z,45824.00
2023-05-10T11:46:33.923Z,48576.00
2023-05-10T11:47:34.902Z,89472.00
2023-05-10T11:48:33.828Z,100320.00
2023-05-10T11:49:33.599Z,73856.00
2023-05-10T11:50:35.894Z,70912.00
2023-05-10T11:51:33.529Z,62848.00
2023-05-10T11:52:34.673Z,52928.00
2023-05-10T11:53:33.487Z,48672.00
2023-05-10T11:54:33.826Z,51552.00
2023-05-10T11:55:33.388Z,42240.00
2023-05-10T11:56:34.515Z,36320.00
2023-05-10T11:57:33.326Z,32192.00
2023-05-10T11:58:33.500Z,28032.00
2023-05-10T11:59:33.256Z,23552.00
2023-05-10T12:00:33.249Z,19616.00
2023-05-10T12:01:33.178Z,17152.00
2023-05-10T12:02:55.348Z,15772.00
2023-05-10T12:03:33.298Z,15156.00
2023-05-10T12:04:34.431Z,16128.00
2023-05-10T12:05:33.035Z,19008.00
2023-05-10T12:06:33.162Z,23328.00
2023-05-10T12:07:33.149Z,27584.00
2023-05-10T12:08:32.928Z,32704.00
2023-05-10T12:09:43.199Z,37696.00
2023-05-10T12:10:32.849Z,50976.00
2023-05-10T12:11:32.976Z,45920.00
2023-05-10T12:12:33.024Z,47424.00
2023-05-10T12:13:34.012Z,45152.00
2023-05-10T12:14:32.788Z,42816.00
2023-05-10T12:15:32.796Z,50752.00
2023-05-10T12:16:32.730Z,45632.00
2023-05-10T12:17:34.895Z,50144.00
2023-05-10T12:18:32.593Z,45824.00
2023-05-10T12:19:32.619Z,44544.00
2023-05-10T12:20:32.680Z,43808.00
2023-05-10T12:21:32.642Z,45024.00
2023-05-10T12:22:32.419Z,45696.00
2023-05-10T12:23:32.368Z,47808.00